Terminal Aerodrome Forecast
Issued by NWS

Home | Current Version | Previous Version | Text Only | Print | Product List | Glossary On
Versions: 1 2 3 4 5 6 7 8 9 10 11 12 13
000
FTUS42 TJSJ 201700
TAFJBQ
TAF
TJBQ 201732Z 2018/2118 08014G20KT P6SM SCT025
     FM202300 10007KT P6SM FEW025
     FM211400 08016G23KT P6SM SCT025
      AMD NOT SKED 2102/2111=

USA.gov is the U.S. government's official web portal to all federal, state and local government web resources and services.